Time;durP1;ratioP1;P1;durP2;ratioP2;P2;SDS_P1;SDS_P2;PMS_P1;PMS_P2;Temp;Humidity;BMP_temperature;BMP_pressure;BME280_temperature;BME280_humidity;BME280_pressure;Samples;Min_cycle;Max_cycle;Signal;HPM_P1;HPM_P2
2021/06/27 00:01:35;;;;;;;109.00;78.20;;;18.50;88.60;;;;;;4997160;28;20367;-73
2021/06/27 00:04:00;;;;;;;108.38;79.68;;;18.40;88.70;;;;;;4995354;28;20026;-77
2021/06/27 00:06:26;;;;;;;109.30;80.80;;;18.50;88.80;;;;;;4994398;28;20497;-75
2021/06/27 00:08:52;;;;;;;112.32;79.50;;;18.40;88.80;;;;;;4994089;28;20030;-72
2021/06/27 00:11:18;;;;;;;115.72;79.05;;;18.40;88.90;;;;;;4994340;28;20054;-73
2021/06/27 00:13:46;;;;;;;112.00;80.25;;;18.30;89.00;;;;;;4996017;28;20026;-73
2021/06/27 00:16:12;;;;;;;109.63;79.97;;;18.30;89.10;;;;;;4997338;28;20469;-80
2021/06/27 00:18:38;;;;;;;108.53;78.10;;;18.30;89.10;;;;;;4997464;28;20042;-72
2021/06/27 00:21:07;;;;;;;109.53;79.95;;;18.20;89.20;;;;;;5005314;28;20049;-81
2021/06/27 00:23:36;;;;;;;103.35;75.93;;;18.20;89.20;;;;;;4994525;28;20040;-73
2021/06/27 00:26:07;;;;;;;109.82;79.93;;;18.20;89.30;;;;;;4993494;28;20469;-79
2021/06/27 00:28:32;;;;;;;110.15;79.70;;;18.20;89.40;;;;;;4998215;28;20486;-77
2021/06/27 00:30:59;;;;;;;105.90;78.65;;;18.20;89.40;;;;;;4994589;28;20042;-76
2021/06/27 00:33:26;;;;;;;108.25;77.95;;;18.10;89.40;;;;;;4990279;28;20532;-77
2021/06/27 00:35:52;;;;;;;112.82;78.47;;;18.10;89.40;;;;;;4996302;28;20484;-73
2021/06/27 00:38:18;;;;;;;110.60;79.35;;;18.10;89.40;;;;;;4994244;28;20567;-76
2021/06/27 00:40:44;;;;;;;109.82;78.30;;;18.20;89.40;;;;;;4997255;28;20128;-79
2021/06/27 00:43:10;;;;;;;105.60;76.50;;;18.10;89.40;;;;;;4992204;28;20109;-73
2021/06/27 00:45:37;;;;;;;103.72;75.45;;;18.10;89.40;;;;;;4994725;28;20050;-73
2021/06/27 00:48:04;;;;;;;106.28;77.53;;;18.10;89.50;;;;;;4992728;28;20092;-74
2021/06/27 00:50:41;;;;;;;104.55;76.50;;;18.10;89.40;;;;;;4994454;28;20049;-78
2021/06/27 00:53:07;;;;;;;110.32;78.85;;;18.10;89.30;;;;;;4995612;28;20030;-74
2021/06/27 00:55:33;;;;;;;112.60;78.85;;;18.10;89.40;;;;;;4994079;28;20034;-79
2021/06/27 00:57:59;;;;;;;111.10;79.10;;;18.10;89.50;;;;;;4994342;28;20026;-76
2021/06/27 01:00:31;;;;;;;106.80;78.35;;;18.00;89.60;;;;;;4990740;28;20049;-74
2021/06/27 01:02:58;;;;;;;107.97;78.05;;;18.00;89.80;;;;;;5000323;28;20481;-76
2021/06/27 01:05:26;;;;;;;101.55;74.28;;;18.00;89.80;;;;;;4994546;28;20481;-74
2021/06/27 01:07:52;;;;;;;108.28;79.20;;;18.00;89.70;;;;;;4992459;28;20100;-72
2021/06/27 01:10:18;;;;;;;110.05;78.78;;;18.00;89.60;;;;;;4992732;28;20165;-77
2021/06/27 01:12:44;;;;;;;103.55;74.68;;;18.00;89.70;;;;;;4993944;28;20034;-72
2021/06/27 01:15:12;;;;;;;97.97;73.60;;;18.00;89.70;;;;;;4994878;28;20037;-71
2021/06/27 01:17:43;;;;;;;102.57;76.22;;;18.00;89.60;;;;;;4987679;28;20034;-73
2021/06/27 01:20:15;;;;;;;100.60;73.68;;;18.00;89.60;;;;;;4995133;28;20035;-72
2021/06/27 01:22:41;;;;;;;99.30;71.78;;;18.00;89.80;;;;;;4993558;28;20465;-79
2021/06/27 01:25:09;;;;;;;109.00;77.22;;;18.00;89.80;;;;;;4994876;28;20041;-76
2021/06/27 01:27:35;;;;;;;103.25;76.30;;;17.80;89.90;;;;;;5002939;28;20042;-77
2021/06/27 01:30:00;;;;;;;103.00;74.93;;;17.80;90.00;;;;;;5014121;28;20043;-72
2021/06/27 01:32:26;;;;;;;102.60;75.80;;;17.90;90.00;;;;;;5014545;28;20428;-72
2021/06/27 01:34:52;;;;;;;99.45;73.50;;;17.90;89.90;;;;;;5012596;28;20061;-72
2021/06/27 01:37:18;;;;;;;100.15;72.30;;;17.90;89.80;;;;;;5012058;28;20037;-77
2021/06/27 01:39:44;;;;;;;101.90;74.10;;;17.80;89.80;;;;;;5012075;28;20044;-72
2021/06/27 01:42:10;;;;;;;98.85;73.40;;;17.90;89.80;;;;;;5014693;28;20142;-76
2021/06/27 01:44:36;;;;;;;94.30;70.43;;;17.90;89.80;;;;;;5017037;28;20374;-74
2021/06/27 01:47:01;;;;;;;90.95;68.35;;;17.90;89.90;;;;;;5008605;28;20041;-73
2021/06/27 01:49:27;;;;;;;103.18;77.60;;;17.90;89.90;;;;;;5007193;28;20041;-73
2021/06/27 01:51:53;;;;;;;97.50;71.68;;;17.90;89.80;;;;;;5013548;28;20550;-72
2021/06/27 01:54:20;;;;;;;90.38;67.75;;;17.90;89.80;;;;;;5010950;28;20057;-73
2021/06/27 01:56:45;;;;;;;89.38;68.57;;;18.00;89.90;;;;;;5008479;28;20345;-76
2021/06/27 01:59:13;;;;;;;92.97;69.22;;;18.00;89.90;;;;;;5010977;28;20057;-74
2021/06/27 02:01:40;;;;;;;85.43;65.75;;;18.00;89.80;;;;;;5009236;28;20069;-75
2021/06/27 02:04:07;;;;;;;91.40;70.35;;;18.10;89.80;;;;;;5006557;28;20088;-71
2021/06/27 02:06:40;;;;;;;92.35;71.68;;;18.10;89.60;;;;;;5014475;28;20042;-74
2021/06/27 02:09:08;;;;;;;93.40;72.88;;;18.00;89.50;;;;;;5011434;28;20060;-77
2021/06/27 02:11:34;;;;;;;98.57;73.20;;;17.90;89.40;;;;;;5011592;28;20041;-72
2021/06/27 02:14:00;;;;;;;92.55;72.13;;;17.90;89.50;;;;;;5013156;28;20092;-72
2021/06/27 02:16:27;;;;;;;90.10;68.05;;;17.90;89.70;;;;;;5011309;28;20045;-73
2021/06/27 02:18:54;;;;;;;94.88;72.90;;;17.90;89.70;;;;;;5008208;28;20053;-76
2021/06/27 02:21:26;;;;;;;97.32;74.15;;;17.90;89.70;;;;;;5013421;28;20050;-73
2021/06/27 02:23:52;;;;;;;90.63;69.20;;;17.90;89.70;;;;;;5009804;28;20046;-71
2021/06/27 02:26:19;;;;;;;90.32;67.95;;;17.90;89.80;;;;;;5006116;28;20114;-72
2021/06/27 02:28:46;;;;;;;91.88;70.95;;;17.90;89.80;;;;;;5014859;28;20076;-72
2021/06/27 02:31:12;;;;;;;95.82;70.93;;;17.90;89.70;;;;;;5008253;28;20077;-72
2021/06/27 02:33:39;;;;;;;92.82;66.53;;;18.00;89.70;;;;;;5014766;28;20499;-72
2021/06/27 02:36:05;;;;;;;86.57;66.00;;;17.90;89.60;;;;;;5011051;28;20042;-72
2021/06/27 02:38:31;;;;;;;91.20;68.90;;;17.90;89.60;;;;;;5013985;28;20052;-74
2021/06/27 02:40:57;;;;;;;91.97;73.15;;;17.90;89.60;;;;;;5004882;28;20490;-72
2021/06/27 02:43:23;;;;;;;98.95;74.03;;;17.90;89.50;;;;;;5006862;28;20469;-77
2021/06/27 02:45:49;;;;;;;93.18;71.53;;;17.90;89.50;;;;;;5013053;28;20100;-73
2021/06/27 02:48:15;;;;;;;98.22;75.10;;;17.80;89.60;;;;;;5006578;28;20469;-72
2021/06/27 02:50:42;;;;;;;98.47;76.82;;;17.90;89.70;;;;;;5007198;28;20504;-74
2021/06/27 02:53:08;;;;;;;98.60;74.60;;;17.80;89.70;;;;;;5005071;28;20054;-75
2021/06/27 02:55:34;;;;;;;100.15;74.90;;;17.80;89.80;;;;;;5001180;28;20046;-73
2021/06/27 02:58:00;;;;;;;106.82;78.10;;;17.80;89.80;;;;;;5006040;28;20042;-73
2021/06/27 03:00:29;;;;;;;104.20;79.45;;;17.80;90.00;;;;;;5012468;28;20382;-72
2021/06/27 03:02:54;;;;;;;99.70;77.50;;;17.80;90.10;;;;;;5013459;28;20042;-71
2021/06/27 03:05:20;;;;;;;111.70;80.80;;;17.80;90.20;;;;;;5018651;28;20392;-80
2021/06/27 03:07:47;;;;;;;110.07;80.93;;;17.80;90.20;;;;;;5017207;28;20099;-74
2021/06/27 03:10:15;;;;;;;115.40;81.78;;;17.70;90.30;;;;;;5016639;28;20037;-73
2021/06/27 03:12:43;;;;;;;111.93;80.43;;;17.70;90.40;;;;;;5012545;28;20421;-71
2021/06/27 03:15:11;;;;;;;106.85;78.32;;;17.70;90.50;;;;;;5010412;28;20026;-73
2021/06/27 03:17:37;;;;;;;104.30;78.35;;;17.60;90.60;;;;;;5015441;28;20472;-72
2021/06/27 03:20:05;;;;;;;103.60;77.38;;;17.70;90.50;;;;;;5011693;28;20113;-72
2021/06/27 03:22:31;;;;;;;99.82;72.43;;;17.80;90.50;;;;;;5013814;28;20114;-72
2021/06/27 03:24:57;;;;;;;95.15;70.50;;;17.70;90.50;;;;;;5013437;28;20488;-72
2021/06/27 03:27:23;;;;;;;89.18;68.95;;;17.80;90.50;;;;;;5014003;28;20042;-72
2021/06/27 03:29:49;;;;;;;90.95;70.10;;;17.70;90.50;;;;;;5017169;28;20037;-77
2021/06/27 03:32:15;;;;;;;87.45;65.20;;;17.80;90.50;;;;;;5012744;28;20393;-78
2021/06/27 03:34:40;;;;;;;90.20;70.78;;;17.80;90.50;;;;;;5024790;28;20033;-77
2021/06/27 03:37:06;;;;;;;97.57;74.22;;;17.80;90.40;;;;;;5029044;28;20107;-73
2021/06/27 03:39:32;;;;;;;96.80;73.10;;;17.80;90.20;;;;;;5013702;28;20480;-72
2021/06/27 03:41:58;;;;;;;93.03;72.75;;;17.70;90.00;;;;;;5014054;28;20137;-75
2021/06/27 03:44:25;;;;;;;100.10;76.55;;;17.70;89.90;;;;;;5021044;28;20034;-78
2021/06/27 03:46:51;;;;;;;93.82;73.65;;;17.70;89.90;;;;;;5018576;28;20132;-73
2021/06/27 03:49:17;;;;;;;98.00;74.75;;;17.70;90.00;;;;;;5017645;28;20046;-75
2021/06/27 03:51:43;;;;;;;97.78;75.45;;;17.70;89.90;;;;;;5017453;28;20117;-76
2021/06/27 03:54:09;;;;;;;102.15;76.85;;;17.70;89.90;;;;;;5016844;28;20241;-73
2021/06/27 03:56:35;;;;;;;101.38;75.25;;;17.70;90.00;;;;;;5007040;28;20052;-71
2021/06/27 03:59:02;;;;;;;101.97;76.38;;;17.60;90.10;;;;;;4997122;28;20462;-73
2021/06/27 04:01:28;;;;;;;111.63;81.35;;;17.70;90.00;;;;;;4989464;28;20471;-72
2021/06/27 04:03:54;;;;;;;113.18;83.25;;;17.60;90.20;;;;;;5006058;28;20046;-78
2021/06/27 04:06:20;;;;;;;109.32;81.55;;;17.60;90.40;;;;;;5013661;28;20385;-76
2021/06/27 04:08:45;;;;;;;112.00;82.13;;;17.60;90.40;;;;;;5014284;28;20046;-73
2021/06/27 04:11:11;;;;;;;116.00;83.88;;;17.60;90.40;;;;;;5015284;28;20037;-72
2021/06/27 04:13:37;;;;;;;117.47;83.28;;;17.60;90.50;;;;;;5015391;28;20044;-72
2021/06/27 04:16:04;;;;;;;121.32;86.95;;;17.60;90.60;;;;;;5016942;28;20053;-72
2021/06/27 04:18:31;;;;;;;119.00;84.75;;;17.50;90.70;;;;;;5012283;28;20516;-72
2021/06/27 04:20:58;;;;;;;110.18;82.80;;;17.60;90.80;;;;;;5017389;28;20042;-72
2021/06/27 04:23:26;;;;;;;106.00;77.75;;;17.60;90.60;;;;;;5013666;28;20405;-72
2021/06/27 04:25:52;;;;;;;99.45;76.82;;;17.70;90.20;;;;;;5017238;28;20042;-72
2021/06/27 04:28:18;;;;;;;104.75;80.72;;;17.80;90.10;;;;;;5012828;28;20436;-72
2021/06/27 04:30:44;;;;;;;102.82;78.07;;;17.90;89.90;;;;;;5014523;28;20044;-76
2021/06/27 04:33:11;;;;;;;97.13;75.53;;;17.90;89.30;;;;;;5013660;28;20040;-79
2021/06/27 04:35:38;;;;;;;96.47;76.93;;;18.00;89.30;;;;;;5016409;28;20040;-74
2021/06/27 04:38:05;;;;;;;97.95;75.20;;;18.10;88.80;;;;;;5013824;28;20064;-72
2021/06/27 04:40:32;;;;;;;91.20;73.45;;;18.10;88.80;;;;;;5012724;28;20466;-72
2021/06/27 04:42:58;;;;;;;96.72;73.40;;;18.10;88.50;;;;;;5012685;28;20034;-72
2021/06/27 04:45:24;;;;;;;95.03;73.43;;;18.00;88.70;;;;;;5014126;28;20492;-74
2021/06/27 04:47:50;;;;;;;94.22;75.07;;;18.00;88.80;;;;;;5016678;28;20064;-73
2021/06/27 04:50:16;;;;;;;91.03;72.50;;;18.10;88.60;;;;;;5013596;28;20037;-73
2021/06/27 04:52:42;;;;;;;91.70;73.60;;;18.10;88.60;;;;;;5014473;28;20397;-74
2021/06/27 04:55:08;;;;;;;90.38;72.72;;;18.10;88.40;;;;;;5009188;28;20029;-76
2021/06/27 04:57:35;;;;;;;92.80;75.70;;;18.10;88.40;;;;;;5010346;28;20033;-73
2021/06/27 05:00:02;;;;;;;87.25;70.80;;;18.00;88.40;;;;;;5013849;28;20092;-74
2021/06/27 05:02:27;;;;;;;88.90;71.85;;;18.10;88.40;;;;;;5013904;28;20042;-74
2021/06/27 05:04:53;;;;;;;86.85;71.65;;;18.10;88.30;;;;;;5015640;28;20036;-78
2021/06/27 05:07:19;;;;;;;88.60;73.57;;;18.20;87.90;;;;;;5012511;28;20033;-72
2021/06/27 05:09:45;;;;;;;88.07;71.15;;;18.10;87.80;;;;;;5016178;28;20388;-74
2021/06/27 05:12:10;;;;;;;86.72;71.45;;;18.10;87.80;;;;;;5016322;28;20042;-73
2021/06/27 05:14:36;;;;;;;82.85;69.20;;;18.20;87.90;;;;;;5015765;28;20525;-72
2021/06/27 05:17:02;;;;;;;88.28;71.63;;;18.30;88.00;;;;;;5014729;28;20041;-75
2021/06/27 05:19:27;;;;;;;87.80;73.47;;;18.30;87.40;;;;;;5011994;28;20463;-76
2021/06/27 05:21:53;;;;;;;89.70;71.70;;;18.30;87.20;;;;;;5013994;28;20045;-72
2021/06/27 05:24:19;;;;;;;81.63;68.40;;;18.40;87.30;;;;;;5006588;28;20416;-73
2021/06/27 05:26:46;;;;;;;80.80;66.95;;;18.40;87.30;;;;;;5015436;28;20048;-75
2021/06/27 05:29:12;;;;;;;83.78;69.25;;;18.50;86.90;;;;;;5004634;28;20520;-72
2021/06/27 05:31:38;;;;;;;74.85;65.95;;;18.50;86.80;;;;;;5012476;28;20124;-73
2021/06/27 05:34:04;;;;;;;81.22;67.55;;;18.50;86.90;;;;;;5012848;28;20038;-73
2021/06/27 05:36:36;;;;;;;77.40;66.53;;;18.60;86.80;;;;;;5009676;28;20091;-72
2021/06/27 05:39:12;;;;;;;79.32;66.68;;;18.60;86.60;;;;;;5012017;28;20034;-76
2021/06/27 05:41:39;;;;;;;78.72;66.40;;;18.60;86.50;;;;;;5014799;28;20045;-75
2021/06/27 05:44:06;;;;;;;77.25;67.10;;;18.60;86.40;;;;;;5014127;28;20042;-73
2021/06/27 05:46:32;;;;;;;75.85;65.47;;;18.60;86.40;;;;;;5012443;28;20501;-76
2021/06/27 05:48:58;;;;;;;79.57;69.43;;;18.60;86.30;;;;;;5014188;28;20061;-72
2021/06/27 05:51:25;;;;;;;78.32;68.47;;;18.50;86.60;;;;;;5009281;28;20136;-76
2021/06/27 05:53:51;;;;;;;76.43;67.22;;;18.50;86.50;;;;;;5013194;28;20388;-75
2021/06/27 05:56:19;;;;;;;79.18;70.15;;;18.60;86.50;;;;;;5012364;28;20124;-76
2021/06/27 05:58:45;;;;;;;79.75;69.70;;;18.60;86.30;;;;;;5011361;28;20361;-75
2021/06/27 06:01:13;;;;;;;81.85;70.10;;;18.60;86.10;;;;;;5013136;28;20034;-74
2021/06/27 06:03:39;;;;;;;78.88;65.90;;;18.60;86.20;;;;;;5012546;28;20567;-79
2021/06/27 06:06:06;;;;;;;83.80;69.38;;;18.60;86.10;;;;;;5013284;28;20396;-73
2021/06/27 06:08:32;;;;;;;83.07;67.57;;;18.60;86.00;;;;;;5013849;28;20032;-71
2021/06/27 06:10:58;;;;;;;77.60;67.90;;;18.70;86.10;;;;;;5008363;28;20100;-74
2021/06/27 06:13:24;;;;;;;78.13;66.70;;;18.70;86.00;;;;;;5013444;28;21377;-75
2021/06/27 06:15:49;;;;;;;76.93;65.55;;;18.80;85.90;;;;;;5010873;28;20038;-76
2021/06/27 06:18:16;;;;;;;81.32;68.53;;;18.70;85.60;;;;;;5019018;28;20065;-71
2021/06/27 06:20:42;;;;;;;74.43;66.22;;;18.70;85.60;;;;;;5006138;28;20636;-74
2021/06/27 06:23:07;;;;;;;78.80;68.63;;;18.70;85.90;;;;;;5006150;28;20121;-71
2021/06/27 06:25:34;;;;;;;76.03;67.20;;;18.70;85.60;;;;;;4999713;28;20065;-74
2021/06/27 06:27:59;;;;;;;74.10;65.75;;;18.70;85.80;;;;;;5024401;28;20058;-74
2021/06/27 06:30:25;;;;;;;77.57;66.13;;;18.60;86.00;;;;;;5008012;28;20103;-73
2021/06/27 06:32:51;;;;;;;75.03;66.82;;;18.70;85.80;;;;;;5017538;28;20128;-72
2021/06/27 06:35:16;;;;;;;76.05;65.47;;;18.70;85.60;;;;;;5008506;28;20034;-75
2021/06/27 06:37:42;;;;;;;69.68;61.90;;;18.70;85.50;;;;;;5011020;28;20446;-76
2021/06/27 06:40:09;;;;;;;68.93;61.42;;;18.80;85.70;;;;;;5015133;28;20044;-76
2021/06/27 06:42:35;;;;;;;75.32;61.83;;;18.90;85.80;;;;;;5012836;28;20045;-73
2021/06/27 06:45:01;;;;;;;71.25;62.88;;;19.00;85.30;;;;;;5011180;28;20494;-72
2021/06/27 06:47:26;;;;;;;64.05;57.30;;;18.90;85.00;;;;;;5011378;28;20034;-74
2021/06/27 06:49:52;;;;;;;66.60;58.33;;;19.10;85.30;;;;;;5012683;28;20048;-75
2021/06/27 06:52:18;;;;;;;66.30;59.08;;;19.10;84.70;;;;;;5008472;28;20049;-72
2021/06/27 06:54:44;;;;;;;69.90;60.60;;;19.20;83.90;;;;;;5016030;28;20063;-73
2021/06/27 06:57:10;;;;;;;68.10;60.90;;;19.30;83.60;;;;;;5011096;28;20042;-78
2021/06/27 06:59:35;;;;;;;66.10;58.97;;;19.20;83.70;;;;;;5008239;28;20386;-73
2021/06/27 07:02:01;;;;;;;63.88;56.97;;;19.30;83.60;;;;;;5011807;28;20041;-78
2021/06/27 07:04:27;;;;;;;65.47;58.40;;;19.40;83.50;;;;;;5012073;28;20124;-77
2021/06/27 07:06:52;;;;;;;65.03;57.95;;;19.30;83.20;;;;;;5009831;28;20073;-75
2021/06/27 07:09:18;;;;;;;67.03;59.60;;;19.30;83.50;;;;;;5005306;28;20049;-73
2021/06/27 07:11:44;;;;;;;63.67;56.97;;;19.40;83.10;;;;;;5010443;28;20041;-72
2021/06/27 07:14:10;;;;;;;65.05;57.95;;;19.50;83.40;;;;;;5019441;28;20038;-70
2021/06/27 07:16:36;;;;;;;67.30;57.67;;;19.60;83.10;;;;;;5018227;28;20045;-70
2021/06/27 07:19:02;;;;;;;64.55;57.72;;;19.60;83.00;;;;;;5011143;28;20065;-72
2021/06/27 07:21:28;;;;;;;66.97;59.88;;;19.70;83.20;;;;;;5014701;28;20045;-70
2021/06/27 07:23:55;;;;;;;62.40;55.85;;;19.80;82.80;;;;;;5013310;28;20068;-71
2021/06/27 07:26:21;;;;;;;62.58;55.80;;;20.00;82.90;;;;;;5006741;28;20042;-69
2021/06/27 07:28:46;;;;;;;64.88;57.75;;;20.00;82.30;;;;;;5006884;28;20040;-71
2021/06/27 07:31:12;;;;;;;62.90;56.15;;;20.00;82.10;;;;;;5007435;28;20042;-69
2021/06/27 07:33:38;;;;;;;66.32;59.10;;;20.00;82.20;;;;;;5009651;28;20041;-70
2021/06/27 07:36:05;;;;;;;62.63;55.97;;;20.00;82.40;;;;;;5010454;28;20045;-69
2021/06/27 07:38:30;;;;;;;63.40;56.80;;;20.10;81.90;;;;;;5006044;28;20058;-69
2021/06/27 07:40:56;;;;;;;63.00;56.17;;;20.20;82.00;;;;;;5013135;28;20082;-72
2021/06/27 07:43:22;;;;;;;58.28;52.17;;;20.30;81.30;;;;;;5008420;28;20033;-70
2021/06/27 07:45:48;;;;;;;58.80;52.70;;;20.40;80.70;;;;;;5010219;28;20504;-70
2021/06/27 07:48:14;;;;;;;56.30;50.20;;;20.50;80.30;;;;;;5013159;28;20124;-72
2021/06/27 07:50:40;;;;;;;53.97;48.42;;;20.60;80.40;;;;;;5012955;28;20142;-71
2021/06/27 07:53:06;;;;;;;55.42;49.35;;;20.60;79.40;;;;;;5012217;28;20041;-74
2021/06/27 07:55:33;;;;;;;54.83;49.08;;;20.60;79.80;;;;;;5014620;28;20026;-73
2021/06/27 07:57:59;;;;;;;54.00;48.42;;;20.80;78.50;;;;;;5014199;28;20025;-69
2021/06/27 08:00:25;;;;;;;53.10;47.50;;;20.70;78.70;;;;;;5011332;28;20084;-73
2021/06/27 08:02:51;;;;;;;51.20;45.20;;;21.00;78.30;;;;;;5013467;28;20041;-74
2021/06/27 08:05:16;;;;;;;48.72;43.60;;;21.20;77.70;;;;;;5012213;28;20077;-69
2021/06/27 08:07:42;;;;;;;48.22;43.10;;;21.30;77.30;;;;;;5013740;28;21650;-70
2021/06/27 08:10:11;;;;;;;48.78;43.42;;;21.30;76.10;;;;;;5009711;28;20034;-69
2021/06/27 08:12:37;;;;;;;48.58;43.58;;;21.30;75.40;;;;;;5013749;28;20056;-76
2021/06/27 08:15:06;;;;;;;45.03;40.55;;;21.40;75.80;;;;;;5009923;28;20030;-70
2021/06/27 08:17:32;;;;;;;45.15;40.55;;;21.40;75.60;;;;;;5009300;28;20808;-70
2021/06/27 08:19:57;;;;;;;42.92;38.20;;;21.50;74.70;;;;;;5010723;28;20034;-70
2021/06/27 08:22:23;;;;;;;42.97;38.78;;;21.60;74.80;;;;;;5007178;28;20125;-73
2021/06/27 08:24:49;;;;;;;40.38;36.38;;;21.60;74.10;;;;;;5012389;28;20172;-70
2021/06/27 08:27:15;;;;;;;40.38;36.17;;;21.70;73.30;;;;;;5010954;28;20476;-70
2021/06/27 08:29:40;;;;;;;40.72;36.60;;;21.80;72.70;;;;;;5011397;28;20324;-76
2021/06/27 08:32:07;;;;;;;41.60;36.15;;;21.70;72.60;;;;;;5013961;28;20087;-71
2021/06/27 08:34:33;;;;;;;39.85;35.85;;;21.80;72.60;;;;;;5012461;28;20040;-71
2021/06/27 08:36:58;;;;;;;38.47;34.28;;;21.70;72.30;;;;;;5012950;28;20037;-70
2021/06/27 08:39:24;;;;;;;38.10;34.33;;;21.70;72.80;;;;;;5012739;28;20057;-71
2021/06/27 08:41:50;;;;;;;38.38;34.42;;;21.80;72.50;;;;;;5014265;28;20119;-71
2021/06/27 08:44:16;;;;;;;38.60;34.63;;;21.90;72.40;;;;;;5014966;28;20068;-71
2021/06/27 08:46:43;;;;;;;37.90;34.22;;;22.10;71.50;;;;;;5012695;28;20568;-73
2021/06/27 08:49:11;;;;;;;36.95;33.15;;;22.10;72.90;;;;;;5012627;28;20033;-71
2021/06/27 08:51:39;;;;;;;36.85;32.95;;;22.10;70.90;;;;;;5011147;28;20579;-74
2021/06/27 08:54:06;;;;;;;34.67;31.08;;;22.00;71.60;;;;;;5008088;28;20076;-71
2021/06/27 08:56:33;;;;;;;33.63;30.08;;;22.00;71.20;;;;;;5006836;28;20033;-71
2021/06/27 08:58:59;;;;;;;34.65;30.30;;;22.00;70.90;;;;;;5008429;28;20465;-71
2021/06/27 09:01:25;;;;;;;35.17;31.58;;;22.00;71.10;;;;;;5012259;28;20053;-76
2021/06/27 09:03:52;;;;;;;32.70;29.25;;;22.10;71.60;;;;;;5005802;28;20038;-74
2021/06/27 09:06:24;;;;;;;33.03;29.63;;;22.10;71.00;;;;;;4997966;28;20057;-75
2021/06/27 09:09:09;;;;;;;32.08;28.92;;;22.10;70.00;;;;;;4997542;28;20041;-73
2021/06/27 09:11:34;;;;;;;32.63;29.33;;;22.30;70.60;;;;;;5001529;28;20092;-77
2021/06/27 09:14:01;;;;;;;32.55;29.33;;;22.40;70.40;;;;;;5002237;28;20034;-71
2021/06/27 09:16:26;;;;;;;32.20;29.00;;;22.10;69.90;;;;;;5002990;28;20033;-73
2021/06/27 09:18:58;;;;;;;31.55;28.35;;;22.30;70.50;;;;;;5000672;28;20369;-76
2021/06/27 09:21:24;;;;;;;32.33;29.00;;;22.40;70.50;;;;;;5005027;28;20481;-72
2021/06/27 09:23:50;;;;;;;30.55;27.50;;;22.30;69.50;;;;;;5005020;28;20029;-76
2021/06/27 09:26:30;;;;;;;31.40;28.20;;;22.30;69.90;;;;;;5004261;28;20027;-75
2021/06/27 09:28:57;;;;;;;32.80;28.45;;;22.60;69.90;;;;;;5004869;28;20046;-73
2021/06/27 09:31:43;;;;;;;31.70;28.38;;;22.70;67.90;;;;;;5000066;28;20038;-72
2021/06/27 09:34:13;;;;;;;29.08;26.08;;;22.90;67.10;;;;;;5000433;28;20299;-79
2021/06/27 09:36:48;;;;;;;28.48;25.67;;;22.90;67.60;;;;;;4996887;28;20084;-79
2021/06/27 09:39:15;;;;;;;29.58;26.70;;;23.10;67.70;;;;;;4999580;28;20461;-74
2021/06/27 09:41:52;;;;;;;29.25;25.45;;;23.10;67.50;;;;;;5000175;28;20497;-77
2021/06/27 09:44:19;;;;;;;31.27;27.92;;;23.20;66.70;;;;;;5001056;28;20127;-75
2021/06/27 09:46:51;;;;;;;29.48;26.40;;;23.30;66.10;;;;;;5002864;28;20037;-73
2021/06/27 09:49:19;;;;;;;33.80;26.92;;;23.40;66.10;;;;;;5004828;28;20531;-77
2021/06/27 09:51:58;;;;;;;27.65;24.85;;;23.60;65.70;;;;;;5002885;28;20385;-83
2021/06/27 09:54:25;;;;;;;27.23;24.63;;;23.80;64.90;;;;;;4997971;28;20042;-80
2021/06/27 09:56:53;;;;;;;29.92;26.95;;;23.90;65.10;;;;;;5004780;28;20056;-75
2021/06/27 09:59:31;;;;;;;28.55;25.65;;;24.00;64.50;;;;;;5000428;28;20022;-71
2021/06/27 10:01:58;;;;;;;27.30;24.40;;;24.10;63.60;;;;;;5000686;28;20080;-72
2021/06/27 10:04:31;;;;;;;28.73;25.85;;;24.10;64.50;;;;;;4992933;28;20038;-86
2021/06/27 10:06:59;;;;;;;28.67;25.77;;;24.10;63.90;;;;;;5001367;28;20049;-77
2021/06/27 10:09:29;;;;;;;29.90;26.83;;;24.00;63.80;;;;;;5001075;28;20124;-71
2021/06/27 10:12:07;;;;;;;32.33;29.10;;;24.00;63.60;;;;;;5008011;28;20037;-72
2021/06/27 10:14:48;;;;;;;31.90;28.63;;;24.10;63.40;;;;;;5005206;28;20393;-72
2021/06/27 10:17:14;;;;;;;31.02;27.83;;;23.90;63.50;;;;;;5012915;28;20037;-75
2021/06/27 10:19:40;;;;;;;31.25;28.25;;;23.80;63.90;;;;;;5005972;28;20066;-84
2021/06/27 10:22:06;;;;;;;33.17;29.23;;;23.70;64.00;;;;;;5010834;28;20233;-79
2021/06/27 10:24:33;;;;;;;29.55;26.65;;;23.70;64.40;;;;;;5009247;28;20042;-72
2021/06/27 10:26:58;;;;;;;29.92;26.98;;;23.60;65.50;;;;;;5023689;28;20040;-83
2021/06/27 10:29:24;;;;;;;31.05;27.85;;;23.80;65.10;;;;;;5011160;28;20034;-76
2021/06/27 10:31:53;;;;;;;29.70;26.75;;;23.70;65.40;;;;;;5009263;28;20109;-78
2021/06/27 10:34:20;;;;;;;29.60;26.02;;;24.00;65.90;;;;;;5003296;28;20033;-80
2021/06/27 10:36:50;;;;;;;30.67;27.58;;;24.30;65.40;;;;;;5013536;28;20040;-83
2021/06/27 10:39:16;;;;;;;33.25;30.02;;;24.40;64.40;;;;;;5024111;28;20444;-77
2021/06/27 10:42:07;;;;;;;29.75;26.58;;;24.50;64.00;;;;;;5008137;28;20064;-79
2021/06/27 10:44:38;;;;;;;30.80;27.73;;;24.40;64.50;;;;;;5008821;28;20034;-72
2021/06/27 10:47:05;;;;;;;31.13;28.08;;;24.30;65.20;;;;;;5001028;28;20056;-76
2021/06/27 10:49:31;;;;;;;32.40;29.15;;;24.30;65.10;;;;;;5002787;28;20030;-77
2021/06/27 10:52:10;;;;;;;29.23;26.10;;;24.50;65.80;;;;;;5008359;28;20061;-82
2021/06/27 10:54:38;;;;;;;29.25;26.35;;;24.70;65.30;;;;;;5006467;28;20069;-77
2021/06/27 10:57:07;;;;;;;30.92;27.63;;;24.90;63.50;;;;;;4995075;28;20022;-73
2021/06/27 10:59:38;;;;;;;28.52;25.77;;;24.90;62.60;;;;;;5000069;28;20620;-74
2021/06/27 11:02:17;;;;;;;31.08;28.00;;;24.90;63.60;;;;;;5019264;28;20076;-73
2021/06/27 11:04:44;;;;;;;30.92;27.88;;;25.00;62.90;;;;;;4999961;28;20050;-72
2021/06/27 11:07:38;;;;;;;31.35;28.20;;;24.80;62.10;;;;;;5000588;28;20041;-72
2021/06/27 11:10:22;;;;;;;31.10;28.05;;;24.50;63.60;;;;;;5001895;28;20096;-77
2021/06/27 11:13:06;;;;;;;30.27;27.30;;;24.60;62.50;;;;;;5002841;28;20064;-79
2021/06/27 11:15:52;;;;;;;31.30;28.25;;;24.50;63.70;;;;;;5012030;28;20088;-72
2021/06/27 11:18:40;;;;;;;31.80;28.70;;;24.60;64.30;;;;;;5003500;28;20312;-72
2021/06/27 11:21:10;;;;;;;31.35;28.25;;;24.70;63.30;;;;;;5008895;28;20053;-75
2021/06/27 11:23:51;;;;;;;30.85;27.75;;;24.70;63.50;;;;;;5012595;28;20501;-73
2021/06/27 11:26:38;;;;;;;31.08;27.98;;;24.80;63.40;;;;;;5008542;28;20030;-75
2021/06/27 11:29:22;;;;;;;31.92;28.73;;;24.90;62.20;;;;;;5009227;28;20030;-72
2021/06/27 11:32:15;;;;;;;30.42;27.45;;;24.70;63.40;;;;;;5013572;28;20030;-72
2021/06/27 11:34:55;;;;;;;30.20;27.08;;;24.80;62.10;;;;;;5016107;28;20045;-70
2021/06/27 11:37:21;;;;;;;31.75;28.52;;;24.80;61.80;;;;;;5016277;28;20029;-71
2021/06/27 11:39:51;;;;;;;33.78;30.40;;;24.80;62.90;;;;;;5011945;28;20038;-71
2021/06/27 11:42:23;;;;;;;34.00;30.50;;;24.80;63.20;;;;;;5004490;28;20045;-77
2021/06/27 11:45:15;;;;;;;33.53;30.15;;;24.90;62.40;;;;;;5010405;28;20079;-71
2021/06/27 11:47:50;;;;;;;33.60;30.20;;;24.90;62.60;;;;;;5007977;28;20124;-71
2021/06/27 11:50:24;;;;;;;32.88;29.67;;;24.70;62.60;;;;;;5004657;28;20025;-79
2021/06/27 11:53:23;;;;;;;33.67;30.45;;;24.60;64.30;;;;;;5002093;28;20460;-77
2021/06/27 11:56:04;;;;;;;30.15;27.10;;;24.40;64.30;;;;;;4984023;28;20033;-80
2021/06/27 11:58:31;;;;;;;31.25;27.88;;;24.80;65.00;;;;;;5005711;28;20147;-72
2021/06/27 12:00:56;;;;;;;29.98;26.98;;;25.10;63.00;;;;;;5002750;28;20469;-71
2021/06/27 12:03:24;;;;;;;30.67;27.55;;;25.40;62.40;;;;;;5000527;28;20113;-70
2021/06/27 12:06:00;;;;;;;31.30;28.13;;;25.30;60.80;;;;;;5004453;28;20088;-74
2021/06/27 12:08:27;;;;;;;29.58;26.42;;;25.60;61.60;;;;;;4995234;28;21101;-71
2021/06/27 12:10:56;;;;;;;29.55;26.70;;;26.00;61.10;;;;;;4996613;28;20056;-73
2021/06/27 12:13:25;;;;;;;29.38;26.42;;;26.20;60.80;;;;;;5003271;28;20028;-73
2021/06/27 12:15:54;;;;;;;31.05;28.05;;;26.50;59.10;;;;;;4994443;28;20105;-73
2021/06/27 12:18:23;;;;;;;31.27;28.02;;;26.80;58.30;;;;;;4991556;28;20045;-70
2021/06/27 12:21:01;;;;;;;29.65;26.75;;;26.70;57.60;;;;;;4996224;28;20046;-73
2021/06/27 12:23:44;;;;;;;29.63;26.70;;;26.60;58.80;;;;;;4987948;28;20049;-76
2021/06/27 12:26:13;;;;;;;29.08;26.17;;;26.80;59.00;;;;;;4983521;28;20046;-79
2021/06/27 12:28:40;;;;;;;27.13;24.33;;;26.70;58.80;;;;;;4987605;28;20089;-73
2021/06/27 12:31:08;;;;;;;26.10;23.60;;;27.20;57.40;;;;;;4988318;28;20433;-76